Time;durP1;ratioP1;P1;durP2;ratioP2;P2;SDS_P1;SDS_P2;PMS_P1;PMS_P2;Temp;Humidity;BMP_temperature;BMP_pressure;BME280_temperature;BME280_humidity;BME280_pressure;Samples;Min_cycle;Max_cycle;Signal;HPM_P1;HPM_P2
2021/12/28 00:02:16;;;;;;;6.07;1.45;;;;;;;9.26;71.77;97688.75;5168300;28;20790;-70
2021/12/28 00:05:09;;;;;;;6.00;1.60;;;;;;;8.53;75.00;97688.72;5182395;28;20053;-70
2021/12/28 00:07:58;;;;;;;7.75;1.60;;;;;;;8.90;72.79;97696.19;5170795;28;20042;-70
2021/12/28 00:10:49;;;;;;;4.25;1.35;;;;;;;9.00;73.33;97696.84;5182016;28;20037;-70
2021/12/28 00:13:40;;;;;;;7.00;1.60;;;;;;;9.03;72.13;97680.66;5182931;28;20639;-70
2021/12/28 00:17:58;;;;;;;9.85;1.70;;;;;;;8.98;72.14;97671.59;5168056;28;20147;-70
2021/12/28 00:19:43;;;;;;;4.55;1.50;;;;;;;9.10;72.00;97689.56;5182731;28;20056;-70
2021/12/28 00:22:33;;;;;;;5.75;1.50;;;;;;;9.01;71.79;97676.56;5166992;28;20053;-71
2021/12/28 00:25:24;;;;;;;5.35;1.58;;;;;;;8.80;72.29;97675.22;5180589;28;20038;-71
2021/12/28 00:28:14;;;;;;;27.95;10.93;;;;;;;8.80;73.03;97679.66;5182954;28;20046;-70
2021/12/28 00:31:06;;;;;;;50.67;26.52;;;;;;;8.89;71.82;97684.78;5189065;28;20130;-71
2021/12/28 00:33:58;;;;;;;47.03;29.52;;;;;;;8.74;72.35;97675.03;5173819;28;20061;-71
2021/12/28 00:36:48;;;;;;;35.97;21.20;;;;;;;9.14;71.47;97674.22;5181419;28;20096;-70
2021/12/28 00:39:38;;;;;;;8.50;3.55;;;;;;;9.20;70.67;97670.88;5181850;28;20552;-71
2021/12/28 00:42:29;;;;;;;7.45;2.38;;;;;;;9.11;70.50;97667.44;5180885;28;20426;-70
2021/12/28 00:45:19;;;;;;;6.35;1.98;;;;;;;9.10;71.02;97667.59;5182511;28;20049;-70
2021/12/28 00:48:10;;;;;;;6.28;1.40;;;;;;;8.99;70.73;97665.31;5165097;28;20044;-71
2021/12/28 00:51:00;;;;;;;7.38;1.95;;;;;;;8.96;71.67;97663.00;5179887;28;20088;-70
2021/12/28 00:53:50;;;;;;;6.55;1.40;;;;;;;8.90;70.40;97659.19;5182003;28;20053;-70
2021/12/28 00:56:40;;;;;;;12.60;2.00;;;;;;;9.02;71.02;97651.75;5181993;28;20045;-70
2021/12/28 00:59:30;;;;;;;9.25;1.63;;;;;;;8.91;71.31;97659.03;5186424;28;20052;-70
2021/12/28 01:02:21;;;;;;;14.90;2.28;;;;;;;8.84;71.06;97650.13;5176883;28;20046;-70
2021/12/28 01:05:12;;;;;;;10.93;2.40;;;;;;;8.94;71.25;97644.66;5176250;28;20054;-70
2021/12/28 01:08:04;;;;;;;15.07;2.67;;;;;;;8.78;70.60;97634.09;5182061;28;20050;-70
2021/12/28 01:10:55;;;;;;;8.18;1.90;;;;;;;8.75;71.24;97640.53;5181476;28;20064;-71
2021/12/28 01:13:45;;;;;;;9.63;2.33;;;;;;;8.50;72.53;97639.69;5166161;28;20060;-70
2021/12/28 01:16:36;;;;;;;12.18;2.13;;;;;;;8.65;71.64;97639.88;5166804;28;20139;-71
2021/12/28 01:19:27;;;;;;;10.68;1.92;;;;;;;8.92;70.64;97636.88;5180179;28;20144;-70
2021/12/28 01:22:17;;;;;;;10.70;2.05;;;;;;;9.08;70.13;97630.75;5180885;28;20430;-71
2021/12/28 01:25:08;;;;;;;13.32;2.03;;;;;;;9.00;70.92;97627.28;5181489;28;20061;-70
2021/12/28 01:27:58;;;;;;;12.90;2.00;;;;;;;9.35;69.04;97621.59;5166272;28;20105;-70
2021/12/28 01:30:48;;;;;;;15.00;2.30;;;;;;;9.16;69.65;97614.88;5182555;28;20041;-70
2021/12/28 01:33:39;;;;;;;12.13;2.30;;;;;;;9.21;70.24;97622.31;5187313;28;20130;-70
2021/12/28 01:36:29;;;;;;;14.73;1.92;;;;;;;8.81;70.72;97612.63;5181404;28;20219;-70
2021/12/28 01:39:19;;;;;;;13.73;2.00;;;;;;;8.79;70.85;97614.59;5185013;28;20117;-70
2021/12/28 01:42:10;;;;;;;19.95;2.40;;;;;;;8.92;69.88;97609.63;5186177;28;20049;-71
2021/12/28 01:45:02;;;;;;;12.85;1.80;;;;;;;8.99;69.15;97591.28;5183161;28;20108;-70
2021/12/28 01:47:52;;;;;;;17.50;2.50;;;;;;;8.93;70.57;97590.94;5184130;28;20045;-71
2021/12/28 01:50:43;;;;;;;22.23;2.58;;;;;;;8.82;70.59;97583.38;5183783;28;20586;-71
2021/12/28 01:53:34;;;;;;;15.18;2.38;;;;;;;8.77;70.98;97577.75;5185159;28;20053;-71
2021/12/28 01:56:36;;;;;;;19.35;2.47;;;;;;;8.47;72.21;97568.69;5185524;28;20473;-70
2021/12/28 01:59:26;;;;;;;17.13;2.10;;;;;;;8.24;72.91;97569.34;5184706;28;20046;-70
2021/12/28 02:02:17;;;;;;;12.98;1.90;;;;;;;8.57;71.78;97574.63;5188308;28;20120;-70
2021/12/28 02:05:08;;;;;;;17.00;2.20;;;;;;;8.23;72.53;97548.34;5192187;28;20052;-70
2021/12/28 02:07:58;;;;;;;14.70;2.17;;;;;;;8.38;72.99;97565.25;5191410;28;20070;-70
2021/12/28 02:10:50;;;;;;;18.48;2.30;;;;;;;8.51;72.61;97567.38;5194678;28;20048;-71
2021/12/28 02:13:40;;;;;;;16.90;2.80;;;;;;;8.36;72.64;97551.34;5186558;28;20124;-70
2021/12/28 02:16:41;;;;;;;19.23;2.47;;;;;;;8.27;73.06;97549.66;5185150;28;20516;-71
2021/12/28 02:19:31;;;;;;;15.50;1.85;;;;;;;8.22;72.75;97541.44;5185083;28;20114;-70
2021/12/28 02:22:21;;;;;;;13.10;2.30;;;;;;;8.34;71.89;97544.56;5184451;28;20041;-70
2021/12/28 02:25:13;;;;;;;12.35;1.70;;;;;;;8.32;72.44;97542.09;5181528;28;20050;-70
2021/12/28 02:28:06;;;;;;;9.27;1.90;;;;;;;8.40;72.19;97538.66;5184485;28;20057;-71
2021/12/28 02:30:58;;;;;;;11.63;2.00;;;;;;;8.34;72.28;97534.81;5183386;28;20044;-71
2021/12/28 02:33:49;;;;;;;16.42;2.20;;;;;;;8.37;72.34;97531.84;5189733;28;20064;-71
2021/12/28 02:36:42;;;;;;;15.25;1.63;;;;;;;8.28;72.55;97538.13;5189391;28;20084;-71
2021/12/28 02:39:32;;;;;;;8.85;1.95;;;;;;;8.00;73.07;97533.16;5179830;28;20038;-71
2021/12/28 02:42:24;;;;;;;11.77;2.13;;;;;;;8.20;72.57;97528.38;5180554;28;20042;-70
2021/12/28 02:45:19;;;;;;;9.18;1.73;;;;;;;7.90;74.26;97527.19;5183828;28;20045;-71
2021/12/28 02:48:10;;;;;;;9.55;1.48;;;;;;;7.76;73.86;97483.81;5184405;28;20427;-70
2021/12/28 02:51:13;;;;;;;16.92;1.98;;;;;;;8.11;72.09;97494.22;5179316;28;20535;-70
2021/12/28 02:54:03;;;;;;;14.48;2.17;;;;;;;8.65;70.63;97513.88;5180217;28;20053;-71
2021/12/28 02:56:53;;;;;;;13.63;1.88;;;;;;;8.58;71.56;97510.25;5179457;28;20483;-70
2021/12/28 02:59:49;;;;;;;11.30;1.80;;;;;;;8.65;70.77;97507.75;5193029;28;20175;-71
2021/12/28 03:02:39;;;;;;;9.32;1.85;;;;;;;8.76;70.06;97504.75;5188707;28;20741;-70
2021/12/28 03:05:30;;;;;;;16.58;2.42;;;;;;;9.06;68.50;97499.72;5179796;28;20046;-69
2021/12/28 03:08:22;;;;;;;13.10;1.80;;;;;;;9.04;69.99;97494.63;5184468;28;20053;-70
2021/12/28 03:11:13;;;;;;;8.73;1.85;;;;;;;9.02;69.77;97491.31;5187882;28;20076;-70
2021/12/28 03:14:03;;;;;;;12.70;2.30;;;;;;;8.71;70.67;97501.81;5188185;28;20103;-70
2021/12/28 03:16:53;;;;;;;17.38;2.20;;;;;;;8.69;69.65;97472.91;5188594;28;20401;-70
2021/12/28 03:19:46;;;;;;;16.58;2.80;;;;;;;8.62;69.86;97494.88;5187517;28;20108;-70
2021/12/28 03:22:37;;;;;;;17.52;2.13;;;;;;;8.82;69.06;97490.06;5183555;28;20183;-70
2021/12/28 03:25:27;;;;;;;12.57;2.15;;;;;;;8.42;69.96;97452.97;5194034;28;20574;-70
2021/12/28 03:28:20;;;;;;;13.73;2.58;;;;;;;8.83;69.29;97467.91;5180970;28;20415;-70
2021/12/28 03:31:13;;;;;;;14.93;1.87;;;;;;;9.17;67.73;97481.66;5165368;28;20061;-70
2021/12/28 03:34:04;;;;;;;15.00;2.50;;;;;;;9.10;68.35;97488.63;5179292;28;20065;-70
2021/12/28 03:36:54;;;;;;;16.48;2.38;;;;;;;9.06;68.87;97473.28;5182705;28;20053;-70
2021/12/28 03:39:44;;;;;;;14.07;2.22;;;;;;;9.10;69.14;97475.41;5190692;28;20045;-70
2021/12/28 03:42:34;;;;;;;16.20;2.70;;;;;;;9.20;68.31;97477.84;5175235;28;20045;-70
2021/12/28 03:45:25;;;;;;;17.02;2.88;;;;;;;9.10;68.50;97474.56;5168908;28;20048;-70
2021/12/28 03:48:15;;;;;;;13.90;1.90;;;;;;;9.05;68.18;97469.00;5180620;28;20053;-70
2021/12/28 03:51:06;;;;;;;12.38;1.95;;;;;;;8.95;68.81;97450.69;5177298;28;20512;-70
2021/12/28 03:53:57;;;;;;;16.92;2.00;;;;;;;8.96;69.21;97462.91;5168509;28;20053;-70
2021/12/28 03:56:47;;;;;;;16.13;2.33;;;;;;;8.93;69.03;97456.13;5168071;28;20152;-70
2021/12/28 03:59:38;;;;;;;15.02;2.13;;;;;;;9.04;68.47;97449.66;5183185;28;20187;-70
2021/12/28 04:02:28;;;;;;;11.48;2.13;;;;;;;8.89;69.23;97446.91;5180729;28;20124;-70
2021/12/28 04:05:19;;;;;;;16.80;2.10;;;;;;;8.79;69.69;97440.19;5180464;28;20044;-70
2021/12/28 04:08:13;;;;;;;18.73;2.78;;;;;;;8.79;69.16;97425.13;5181126;28;20050;-70
2021/12/28 04:11:25;;;;;;;12.10;1.88;;;;;;;8.84;70.05;97435.19;5185512;28;20707;-70
2021/12/28 04:14:16;;;;;;;14.05;1.77;;;;;;;8.94;69.63;97434.00;5155103;28;20107;-70
2021/12/28 04:17:06;;;;;;;18.75;2.17;;;;;;;8.66;69.63;97440.72;5180727;28;20046;-70
2021/12/28 04:19:57;;;;;;;15.80;2.55;;;;;;;9.08;68.47;97436.94;5182677;28;20049;-70
2021/12/28 04:22:48;;;;;;;15.68;2.35;;;;;;;9.27;67.78;97433.84;5182523;28;20046;-70
2021/12/28 04:25:38;;;;;;;9.35;1.85;;;;;;;9.43;67.49;97438.22;5170506;28;20520;-70
2021/12/28 04:28:29;;;;;;;21.50;2.15;;;;;;;9.41;67.18;97437.56;5183151;28;20113;-70
2021/12/28 04:31:20;;;;;;;12.02;1.80;;;;;;;9.47;67.49;97443.97;5182948;28;20195;-70
2021/12/28 04:34:11;;;;;;;16.05;2.17;;;;;;;9.24;68.65;97436.00;5182669;28;20100;-70
2021/12/28 04:37:00;;;;;;;10.85;1.88;;;;;;;9.25;69.31;97442.97;5181922;28;20045;-70
2021/12/28 04:39:52;;;;;;;12.95;1.85;;;;;;;9.37;68.86;97444.19;5183065;28;20049;-70
2021/12/28 04:42:42;;;;;;;11.30;1.85;;;;;;;9.47;67.37;97436.03;5192772;28;20044;-70
2021/12/28 04:45:33;;;;;;;10.98;1.92;;;;;;;9.80;66.47;97421.59;5178585;28;20119;-70
2021/12/28 04:48:23;;;;;;;17.98;2.17;;;;;;;9.68;66.82;97417.72;5182268;28;20053;-70
2021/12/28 04:51:14;;;;;;;15.55;2.15;;;;;;;9.62;67.03;97432.47;5182354;28;20041;-70
2021/12/28 04:54:10;;;;;;;15.18;2.17;;;;;;;9.41;67.90;97429.63;5177086;28;20043;-70
2021/12/28 04:57:00;;;;;;;16.02;3.05;;;;;;;9.54;68.30;97421.13;5177361;28;20139;-70
2021/12/28 04:59:50;;;;;;;9.10;1.92;;;;;;;9.54;68.65;97423.78;5182066;28;20042;-70
2021/12/28 05:02:40;;;;;;;17.05;2.90;;;;;;;9.44;68.52;97420.50;5180331;28;20038;-70
2021/12/28 05:05:34;;;;;;;13.95;2.00;;;;;;;9.25;69.27;97419.97;5156514;28;20038;-70
2021/12/28 05:08:24;;;;;;;14.05;1.60;;;;;;;9.57;68.27;97412.81;5183671;28;20081;-70
2021/12/28 05:11:14;;;;;;;10.27;1.70;;;;;;;9.16;69.33;97391.91;5182559;28;20085;-70
2021/12/28 05:14:05;;;;;;;13.50;2.00;;;;;;;9.36;69.31;97384.34;5194278;28;20044;-70
2021/12/28 05:16:57;;;;;;;17.13;2.13;;;;;;;9.27;69.91;97396.84;5181038;28;20044;-70
2021/12/28 05:19:47;;;;;;;14.00;2.03;;;;;;;9.24;69.22;97391.03;5180441;28;20111;-70
2021/12/28 05:22:37;;;;;;;14.52;2.10;;;;;;;9.33;69.47;97374.94;5181688;28;20056;-70
2021/12/28 05:25:27;;;;;;;14.63;1.90;;;;;;;9.16;69.60;97382.16;5177692;28;20108;-70
2021/12/28 05:28:17;;;;;;;9.60;1.92;;;;;;;9.33;69.65;97382.88;5179207;28;20050;-70
2021/12/28 05:31:08;;;;;;;14.18;1.70;;;;;;;9.39;68.91;97368.97;5181456;28;20042;-70
2021/12/28 05:33:58;;;;;;;12.18;2.45;;;;;;;9.42;69.17;97388.94;5177472;28;20536;-70
2021/12/28 05:36:48;;;;;;;12.15;2.20;;;;;;;9.48;68.83;97377.66;5181771;28;20057;-70
2021/12/28 05:39:39;;;;;;;12.57;2.58;;;;;;;9.70;67.60;97372.53;5166982;28;20137;-70
2021/12/28 05:42:29;;;;;;;12.75;1.95;;;;;;;9.51;69.17;97364.09;5184249;28;20064;-70
2021/12/28 05:45:19;;;;;;;14.38;1.73;;;;;;;9.59;69.04;97369.31;5180875;28;20077;-70
2021/12/28 05:48:10;;;;;;;11.55;1.42;;;;;;;9.41;69.41;97351.09;5181824;28;20057;-70
2021/12/28 05:51:00;;;;;;;11.55;2.13;;;;;;;9.65;69.43;97371.25;5181700;28;20060;-70
2021/12/28 05:53:50;;;;;;;9.15;1.60;;;;;;;9.62;69.11;97361.00;5182121;28;20045;-70
2021/12/28 05:56:41;;;;;;;13.27;2.03;;;;;;;9.71;68.76;97366.25;5181233;28;20057;-70
2021/12/28 05:59:31;;;;;;;12.10;2.15;;;;;;;9.65;68.89;97365.97;5171572;28;20436;-70
2021/12/28 06:02:21;;;;;;;10.65;1.55;;;;;;;9.65;68.74;97376.53;5181132;28;20541;-70
2021/12/28 06:05:12;;;;;;;10.65;2.00;;;;;;;9.79;68.31;97372.28;5178272;28;20241;-70
2021/12/28 06:08:02;;;;;;;10.68;2.13;;;;;;;9.70;69.06;97369.88;5182967;28;20563;-70
2021/12/28 06:11:12;;;;;;;19.58;2.00;;;;;;;9.73;68.79;97358.94;5181816;28;20531;-70
2021/12/28 06:14:02;;;;;;;6.68;1.60;;;;;;;9.60;70.04;97363.03;5191366;28;20047;-70
2021/12/28 06:16:54;;;;;;;9.70;2.17;;;;;;;9.52;70.29;97375.50;5179191;28;20042;-70
2021/12/28 06:19:44;;;;;;;12.57;2.00;;;;;;;9.55;70.50;97364.56;5181622;28;20504;-70
2021/12/28 06:22:35;;;;;;;9.63;2.00;;;;;;;9.92;68.80;97362.94;5166317;28;20057;-70
2021/12/28 06:25:25;;;;;;;9.65;1.98;;;;;;;9.88;68.25;97343.94;5184847;28;20052;-70
2021/12/28 06:28:15;;;;;;;11.00;1.70;;;;;;;9.49;70.02;97336.16;5184939;28;20535;-70
2021/12/28 06:31:05;;;;;;;6.32;1.85;;;;;;;9.54;70.20;97344.41;5184807;28;20061;-70
2021/12/28 06:33:57;;;;;;;13.05;2.00;;;;;;;9.55;69.96;97340.75;5182056;28;20057;-70
2021/12/28 06:36:48;;;;;;;11.43;2.50;;;;;;;9.75;68.93;97323.38;5180618;28;20412;-70
2021/12/28 06:39:38;;;;;;;11.52;2.17;;;;;;;9.58;70.58;97340.38;5169187;28;20057;-70
2021/12/28 06:42:28;;;;;;;6.28;1.90;;;;;;;9.45;70.70;97334.88;5187192;28;20041;-70
2021/12/28 06:45:18;;;;;;;8.63;1.85;;;;;;;9.61;70.16;97332.91;5187786;28;20038;-70
2021/12/28 06:48:09;;;;;;;9.00;1.63;;;;;;;9.73;70.42;97329.84;5186996;28;20046;-70
2021/12/28 06:50:59;;;;;;;12.55;2.00;;;;;;;9.35;71.10;97314.75;5175997;28;20057;-70
2021/12/28 06:53:49;;;;;;;8.88;2.10;;;;;;;9.55;71.38;97328.34;5184268;28;20264;-70
2021/12/28 06:56:40;;;;;;;9.88;2.10;;;;;;;9.63;71.16;97332.72;5178008;28;20064;-70
2021/12/28 06:59:30;;;;;;;8.73;2.03;;;;;;;9.54;71.14;97328.53;5184763;28;20101;-70
2021/12/28 07:02:20;;;;;;;9.63;2.10;;;;;;;9.71;70.15;97322.09;5185125;28;20048;-70
2021/12/28 07:05:12;;;;;;;12.52;2.20;;;;;;;9.61;69.02;97321.50;5181165;28;20057;-70
2021/12/28 07:08:02;;;;;;;11.32;2.30;;;;;;;9.26;71.28;97313.19;5182840;28;20077;-70
2021/12/28 07:10:53;;;;;;;9.20;2.00;;;;;;;9.14;71.35;97328.66;5166090;28;20056;-70
2021/12/28 07:13:43;;;;;;;4.30;1.90;;;;;;;9.13;70.97;97310.28;5184636;28;20042;-70
2021/12/28 07:16:33;;;;;;;10.18;3.40;;;;;;;8.57;74.71;97325.47;5188096;28;20435;-70
2021/12/28 07:19:24;;;;;;;4.22;1.67;;;;;;;8.84;73.63;97306.53;5189260;28;20045;-70
2021/12/28 07:22:14;;;;;;;6.10;2.10;;;;;;;9.49;70.04;97296.47;5183990;28;20042;-70
2021/12/28 07:25:06;;;;;;;7.10;2.40;;;;;;;9.40;71.19;97301.00;5181850;28;20045;-69
2021/12/28 07:27:57;;;;;;;8.88;3.03;;;;;;;9.25;71.40;97285.09;5183135;28;20100;-70
2021/12/28 07:30:47;;;;;;;7.32;1.83;;;;;;;9.43;70.41;97289.25;5183730;28;20065;-70
2021/12/28 07:33:37;;;;;;;3.85;1.80;;;;;;;9.72;69.86;97294.59;5183921;28;20049;-70
2021/12/28 07:36:27;;;;;;;4.72;1.52;;;;;;;10.01;68.42;97295.66;5178409;28;20041;-70
2021/12/28 07:39:18;;;;;;;5.13;1.50;;;;;;;10.50;66.70;97305.72;5187559;28;20535;-70
2021/12/28 07:42:08;;;;;;;3.97;1.40;;;;;;;9.96;68.87;97311.25;5175641;28;20056;-70
2021/12/28 07:44:59;;;;;;;3.03;1.15;;;;;;;10.19;68.46;97308.53;5174623;28;20051;-70
2021/12/28 07:47:50;;;;;;;3.28;0.95;;;;;;;10.43;68.00;97313.59;5181490;28;20970;-70
2021/12/28 07:50:39;;;;;;;3.00;0.90;;;;;;;10.26;68.14;97301.53;5179573;28;20123;-70
2021/12/28 07:53:29;;;;;;;1.63;0.90;;;;;;;10.56;67.36;97310.28;5179199;28;20041;-70
2021/12/28 07:56:20;;;;;;;3.58;0.70;;;;;;;10.69;66.41;97313.09;5182128;28;20925;-70
2021/12/28 07:59:10;;;;;;;1.50;0.65;;;;;;;10.53;67.57;97310.66;5187145;28;20164;-69
2021/12/28 08:02:00;;;;;;;0.63;0.50;;;;;;;10.91;66.30;97316.59;5184468;28;20053;-69
2021/12/28 08:04:50;;;;;;;3.97;0.70;;;;;;;10.44;67.68;97294.03;5191442;28;20622;-69
2021/12/28 08:07:40;;;;;;;1.23;0.68;;;;;;;10.90;65.70;97314.16;5166332;28;20084;-69
2021/12/28 08:10:31;;;;;;;0.98;0.75;;;;;;;9.85;70.40;97308.03;5180766;28;20045;-70
2021/12/28 08:13:22;;;;;;;2.83;0.50;;;;;;;10.75;66.52;97312.34;5159601;28;20045;-68
2021/12/28 08:16:12;;;;;;;1.30;0.75;;;;;;;10.30;68.63;97324.84;5170195;28;20551;-69
2021/12/28 08:19:04;;;;;;;3.35;0.75;;;;;;;10.41;67.81;97331.50;5171515;28;20054;-70
2021/12/28 08:22:06;;;;;;;4.77;0.77;;;;;;;10.99;66.54;97324.47;5174638;28;20710;-69
2021/12/28 08:24:56;;;;;;;0.93;0.50;;;;;;;11.46;64.76;97331.06;5178714;28;20188;-69
2021/12/28 08:27:49;;;;;;;0.70;0.40;;;;;;;11.08;66.90;97327.81;5165508;28;20068;-70
2021/12/28 08:30:40;;;;;;;1.15;0.50;;;;;;;11.20;65.69;97326.31;5182600;28;20647;-69
2021/12/28 08:33:30;;;;;;;2.28;0.50;;;;;;;11.35;65.67;97339.50;5174738;28;20549;-68
2021/12/28 08:36:21;;;;;;;1.70;0.50;;;;;;;11.10;65.83;97331.09;5186951;28;20061;-68
2021/12/28 08:39:11;;;;;;;3.08;0.60;;;;;;;11.37;65.48;97339.34;5187247;28;20116;-69
2021/12/28 08:42:01;;;;;;;0.52;0.45;;;;;;;11.45;64.96;97332.06;5178209;28;20052;-69
2021/12/28 08:44:52;;;;;;;1.90;0.60;;;;;;;11.15;66.10;97320.75;5180853;28;20049;-69
2021/12/28 08:47:43;;;;;;;2.40;0.60;;;;;;;10.81;67.88;97335.47;5183802;28;20054;-68
2021/12/28 08:50:33;;;;;;;1.15;0.45;;;;;;;11.08;66.63;97319.03;5185775;28;20539;-68
2021/12/28 08:53:23;;;;;;;3.33;0.50;;;;;;;11.40;66.07;97339.78;5185030;28;21218;-69
2021/12/28 08:56:13;;;;;;;0.82;0.20;;;;;;;11.04;67.48;97345.94;5182062;28;20057;-68
2021/12/28 08:59:03;;;;;;;2.65;0.30;;;;;;;11.34;66.66;97345.84;5180406;28;20100;-69
2021/12/28 09:01:56;;;;;;;1.55;0.40;;;;;;;10.77;68.94;97336.84;5184752;28;20065;-68
2021/12/28 09:04:46;;;;;;;3.85;0.30;;;;;;;10.95;67.73;97335.63;5189329;28;20057;-71
2021/12/28 09:07:37;;;;;;;2.55;0.40;;;;;;;11.04;67.88;97342.47;5188969;28;20531;-70
2021/12/28 09:10:27;;;;;;;3.85;0.50;;;;;;;10.79;69.12;97344.59;5187505;28;20060;-71
2021/12/28 09:13:18;;;;;;;1.58;0.80;;;;;;;11.13;67.33;97348.47;5176666;28;20042;-70
2021/12/28 09:16:08;;;;;;;4.47;0.43;;;;;;;11.02;68.66;97352.41;5177181;28;20133;-69
2021/12/28 09:18:59;;;;;;;2.65;0.95;;;;;;;11.13;68.27;97357.25;5179522;28;20051;-68
2021/12/28 09:21:48;;;;;;;4.03;1.25;;;;;;;11.17;68.39;97347.09;5177897;28;20065;-68
2021/12/28 09:24:39;;;;;;;2.95;1.35;;;;;;;11.23;68.25;97346.34;5176531;28;20500;-69
2021/12/28 09:27:38;;;;;;;3.72;1.30;;;;;;;10.99;69.20;97355.44;5175800;28;20049;-68
2021/12/28 09:30:28;;;;;;;9.05;1.10;;;;;;;11.21;69.14;97364.28;5173505;28;20175;-69
2021/12/28 09:33:19;;;;;;;4.68;2.15;;;;;;;11.14;69.28;97356.25;5172002;28;20038;-68
2021/12/28 09:36:14;;;;;;;3.13;1.75;;;;;;;11.42;67.87;97361.66;5170502;28;20057;-67
2021/12/28 09:39:04;;;;;;;4.63;1.08;;;;;;;10.93;69.36;97357.03;5171871;28;20132;-67
2021/12/28 09:42:01;;;;;;;2.08;0.70;;;;;;;11.33;68.58;97364.63;5177112;28;20065;-68
2021/12/28 09:44:51;;;;;;;0.68;0.38;;;;;;;11.63;67.29;97349.38;5179117;28;20041;-68
2021/12/28 09:47:42;;;;;;;2.97;0.20;;;;;;;11.57;68.11;97366.88;5180648;28;20104;-68
2021/12/28 09:50:34;;;;;;;0.60;0.15;;;;;;;11.40;68.10;97365.50;5179610;28;20052;-68
2021/12/28 09:53:24;;;;;;;1.10;0.30;;;;;;;11.43;68.67;97373.09;5179454;28;20041;-70
2021/12/28 09:56:14;;;;;;;2.25;0.30;;;;;;;11.98;66.02;97372.38;5183932;28;20058;-69
2021/12/28 09:59:05;;;;;;;0.75;0.30;;;;;;;11.75;66.90;97369.94;5184534;28;20049;-70
2021/12/28 10:01:59;;;;;;;1.02;0.40;;;;;;;11.58;67.37;97381.78;5187526;28;20049;-71
2021/12/28 10:05:04;;;;;;;1.17;0.30;;;;;;;12.01;66.09;97376.47;5195842;28;20558;-71
2021/12/28 10:07:57;;;;;;;0.52;0.30;;;;;;;11.86;66.33;97375.75;5184285;28;20515;-70
2021/12/28 10:10:49;;;;;;;2.20;0.20;;;;;;;11.84;67.23;97378.59;5174246;28;20528;-70
2021/12/28 10:13:39;;;;;;;0.25;0.20;;;;;;;12.01;66.83;97387.09;5182667;28;20272;-70
2021/12/28 10:16:52;;;;;;;0.80;0.40;;;;;;;11.97;65.85;97352.13;5183292;28;20068;-70
2021/12/28 10:19:45;;;;;;;1.77;0.30;;;;;;;11.31;68.63;97362.13;5182870;28;20096;-69
2021/12/28 10:22:38;;;;;;;0.38;0.32;;;;;;;12.46;65.36;97385.81;5182831;28;20053;-70
2021/12/28 10:25:35;;;;;;;1.42;0.50;;;;;;;12.31;66.73;97393.06;5181644;28;20057;-69
2021/12/28 10:28:35;;;;;;;0.93;0.30;;;;;;;12.70;65.67;97381.03;5183863;28;20050;-70
2021/12/28 10:31:26;;;;;;;0.15;0.15;;;;;;;13.01;64.64;97375.22;5183075;28;20053;-69
2021/12/28 10:34:18;;;;;;;0.57;0.30;;;;;;;12.80;65.49;97375.34;5183288;28;20104;-68
2021/12/28 10:37:21;;;;;;;0.73;0.30;;;;;;;12.81;64.74;97372.47;5183533;28;20427;-69
2021/12/28 10:40:14;;;;;;;1.80;0.20;;;;;;;12.07;66.85;97343.84;5180785;28;20239;-70
2021/12/28 10:43:05;;;;;;;1.08;0.40;;;;;;;12.56;66.63;97377.47;5181958;28;20148;-69
2021/12/28 10:46:04;;;;;;;0.32;0.20;;;;;;;12.79;64.98;97365.75;5169782;28;20041;-67
2021/12/28 10:48:58;;;;;;;0.30;0.20;;;;;;;12.57;67.16;97363.16;5184524;28;20168;-69
2021/12/28 10:51:48;;;;;;;0.93;0.65;;;;;;;12.73;68.25;97370.00;5167278;28;20128;-69
2021/12/28 10:54:38;;;;;;;1.17;0.35;;;;;;;13.00;66.33;97386.06;5171233;28;20041;-69
2021/12/28 10:57:41;;;;;;;1.77;0.70;;;;;;;13.00;66.32;97378.09;5176892;28;20049;-69
2021/12/28 11:00:43;;;;;;;0.93;0.80;;;;;;;13.20;66.27;97376.31;5180788;28;20128;-70
2021/12/28 11:03:35;;;;;;;0.40;0.40;;;;;;;12.74;67.72;97374.28;5185540;28;20401;-68
2021/12/28 11:06:38;;;;;;;1.88;0.70;;;;;;;12.81;67.80;97371.66;5166260;28;20112;-68
2021/12/28 11:09:29;;;;;;;1.15;0.65;;;;;;;12.80;67.08;97367.38;5179452;28;20589;-72
2021/12/28 11:12:18;;;;;;;1.13;0.73;;;;;;;13.11;66.62;97361.53;5162253;28;20061;-70
2021/12/28 11:15:08;;;;;;;2.17;0.50;;;;;;;13.20;67.01;97372.84;5162627;28;20097;-70
2021/12/28 11:17:58;;;;;;;0.82;0.60;;;;;;;12.91;68.82;97362.31;5179925;28;20045;-68
2021/12/28 11:20:50;;;;;;;1.75;0.73;;;;;;;12.57;71.26;97360.50;5175824;28;20069;-69
2021/12/28 11:23:42;;;;;;;1.52;0.50;;;;;;;12.86;69.64;97355.94;5177520;28;20097;-69
2021/12/28 11:26:34;;;;;;;1.77;0.60;;;;;;;13.20;69.22;97370.19;5178148;28;20042;-70
2021/12/28 11:29:32;;;;;;;1.48;0.60;;;;;;;13.31;69.15;97367.81;5174944;28;20069;-69
2021/12/28 11:32:22;;;;;;;0.73;0.52;;;;;;;13.22;69.05;97362.84;5178021;28;20701;-69
2021/12/28 11:35:12;;;;;;;2.50;1.00;;;;;;;13.34;68.40;97350.59;5176919;28;20056;-70
2021/12/28 11:38:02;;;;;;;1.67;0.88;;;;;;;13.39;68.48;97338.31;5178486;28;20135;-71
2021/12/28 11:40:53;;;;;;;1.13;0.70;;;;;;;13.37;68.21;97339.53;5176244;28;20057;-70
2021/12/28 11:43:44;;;;;;;1.83;0.45;;;;;;;13.80;66.14;97334.66;5177899;28;20149;-69
2021/12/28 11:46:34;;;;;;;1.02;0.52;;;;;;;13.15;68.96;97347.66;5180668;28;21556;-72
2021/12/28 11:49:28;;;;;;;0.85;0.68;;;;;;;13.80;66.22;97341.84;5180279;28;20065;-72
2021/12/28 11:52:20;;;;;;;2.30;0.67;;;;;;;13.60;67.40;97339.16;5174218;28;20049;-71
2021/12/28 11:55:10;;;;;;;1.08;0.45;;;;;;;13.01;69.68;97343.28;5174983;28;20320;-69
2021/12/28 11:58:00;;;;;;;1.33;0.60;;;;;;;13.43;68.80;97332.59;5162791;28;20065;-70
2021/12/28 12:00:52;;;;;;;2.03;0.55;;;;;;;13.58;67.65;97336.72;5182791;28;20124;-71
2021/12/28 12:03:43;;;;;;;2.65;0.77;;;;;;;13.34;67.96;97316.81;5174907;28;20053;-70
2021/12/28 12:07:14;;;;;;;3.20;0.70;;;;;;;13.45;68.04;97325.25;5169352;28;20135;-71
2021/12/28 12:10:20;;;;;;;1.10;0.60;;;;;;;13.80;66.77;97328.53;5180196;28;20053;-72
2021/12/28 12:13:18;;;;;;;1.73;0.50;;;;;;;13.21;69.46;97329.22;5169019;28;20069;-71
2021/12/28 12:16:16;;;;;;;1.38;0.65;;;;;;;13.46;69.46;97316.22;5183738;28;20061;-70
2021/12/28 12:19:06;;;;;;;2.33;0.50;;;;;;;13.51;68.76;97314.59;5176392;28;20148;-70
2021/12/28 12:23:00;;;;;;;0.65;0.65;;;;;;;13.97;66.58;97318.25;5184650;28;20046;-72
2021/12/28 12:26:00;;;;;;;0.85;0.40;;;;;;;13.24;69.34;97279.09;5180436;28;20153;-74
2021/12/28 12:28:53;;;;;;;3.85;0.70;;;;;;;13.24;69.72;97302.22;5174229;28;20529;-72
2021/12/28 12:31:43;;;;;;;0.98;0.60;;;;;;;13.36;70.29;97312.09;5168627;28;20038;-72
2021/12/28 12:34:36;;;;;;;2.78;0.90;;;;;;;13.47;69.59;97312.53;5165689;28;20100;-73
2021/12/28 12:37:40;;;;;;;1.17;0.90;;;;;;;13.73;68.54;97295.75;5161255;28;20057;-71
2021/12/28 12:41:02;;;;;;;1.50;0.70;;;;;;;13.65;68.92;97303.94;5166489;28;20045;-72
2021/12/28 12:43:56;;;;;;;0.65;0.40;;;;;;;13.92;67.47;97286.91;5148886;28;20050;-73
2021/12/28 12:46:47;;;;;;;0.85;0.20;;;;;;;13.78;67.69;97282.63;5164213;28;20050;-72
2021/12/28 12:49:39;;;;;;;0.40;0.40;;;;;;;13.56;69.05;97295.34;5162201;28;20049;-73
2021/12/28 12:52:32;;;;;;;2.15;0.60;;;;;;;14.06;66.73;97291.19;5166452;28;20057;-73
2021/12/28 12:55:34;;;;;;;2.05;0.50;;;;;;;13.81;67.92;97287.56;5164480;28;20086;-72
2021/12/28 12:58:25;;;;;;;2.05;0.75;;;;;;;13.49;68.57;97276.69;5164615;28;20061;-73
2021/12/28 13:01:25;;;;;;;0.85;0.80;;;;;;;13.39;69.63;97282.41;5164591;28;20099;-70
2021/12/28 13:04:28;;;;;;;1.48;0.73;;;;;;;13.40;69.65;97278.72;5166332;28;20258;-74
2021/12/28 13:07:20;;;;;;;1.75;1.00;;;;;;;13.36;69.91;97274.84;5151571;28;20054;-72
2021/12/28 13:10:26;;;;;;;2.72;1.10;;;;;;;13.25;70.12;97256.81;5167110;28;20587;-72
2021/12/28 13:13:17;;;;;;;0.73;0.70;;;;;;;13.34;70.04;97262.75;5171521;28;20038;-71
2021/12/28 13:16:07;;;;;;;1.42;0.70;;;;;;;13.26;70.09;97263.78;5163959;28;20053;-69
2021/12/28 13:19:16;;;;;;;2.53;0.90;;;;;;;13.23;70.17;97272.13;5164372;28;20156;-69
2021/12/28 13:22:09;;;;;;;3.45;1.90;;;;;;;13.20;70.58;97261.88;5176209;28;20045;-69
2021/12/28 13:24:59;;;;;;;3.75;2.50;;;;;;;13.06;70.72;97258.38;5180304;28;20049;-70
2021/12/28 13:27:50;;;;;;;3.13;2.45;;;;;;;13.06;71.21;97266.38;5173756;28;20076;-71
2021/12/28 13:30:42;;;;;;;4.47;1.88;;;;;;;13.04;71.59;97263.06;5164315;28;20069;-71
2021/12/28 13:33:35;;;;;;;3.92;1.35;;;;;;;13.10;71.40;97264.94;5166009;28;20214;-71